메인 페이지
METAR-TAF:

METAR-TAF

공항 :

포르드프랑스, 마르티니크

위도: 14-36N, 경도: 061-00W, 고도: 5m

현재 날씨관측

예보는 31분 전, 04:30시(UTC)에 발표되었습니다.
동북동3kt
온도 25°C
습도 83%
기압 1015 hPa
시정 10km 이상
고도 4400ft 상공 구름 많음
고도 5400ft 상공 구름 많음

METAR: TFFF 250430Z AUTO 06003KT 9999 BKN044 BKN054 25/22 Q1015 TEMPO 4000 SHRA SCT020TCU

시각: 01:01 (05:01 UTC)

예보

예보는 6 시간 1분 전, 23:00시(UTC)에 발표되었습니다.
예보 대상 시간: 25일 00시부터 25일 24시까지 (UTC)
여러 방향의 바람 3kt
시정 10km 이상
고도 2600ft 상공 구름 보통
고도 4000ft 상공 구름 보통
고도 25000ft 상공 구름 많음
전환 중
25일 11시부터 25일 13시까지 (UTC)
동북동10kt
확률 30% :
일시적
25일 06시부터 25일 24시까지 (UTC)
시정: 4000m
고도 2000ft 상공 구름 보통, 타워링 적운.
소나기

TAF: TFFF 242300Z 2500/2524 VRB03KT 9999 SCT026 SCT040 BKN250 BECMG 2511/2513 06010KT PROB30 TEMPO 2506/2524 4000 SHRA SCT020TCU

4,000개 이상의 공항 관측 자료 및 예보 (METAR 및 TAF 보고).

지도상에서 검색 가능한 기상관측소가 노란 점과 빨간 점으로 표시되어 있습니다.

기상관측소 명을 보려면 표시 위로 마우스를 이동하세요.

날씨 관측과 예보를 보려면 클릭하세요.

지도 변경 : 확대하려면 엑스 표시가 있는 녹색 버튼, 축소하려면 빼기 표시가 있는 녹색 버튼, 다음 페이지의 지도를 보려면 녹색 화살표를 클릭하세요.


METAR-TAF: